Aviation Digital Data Service (ADDS)

Output produced by TAFs form (0100 UTC 24 August 2017)
found at http://www.aviationweather.gov/adds/tafs/
 
KMRB 232320Z 2400/2424 34007KT P6SM FEW090 
     FM240400 VRB03KT P6SM FEW090 
     FM241500 34005KT P6SM BKN050 
     FM242300 VRB03KT P6SM BKN050